createdAt,value
2024-01-17T00:00:19.820Z,96706.00
2024-01-17T00:02:54.078Z,96713.00
2024-01-17T00:05:28.211Z,96715.00
2024-01-17T00:08:02.957Z,96701.00
2024-01-17T00:10:38.533Z,96718.00
2024-01-17T00:13:12.645Z,96719.00
2024-01-17T00:15:46.764Z,96711.00
2024-01-17T00:18:21.104Z,96706.00
2024-01-17T00:20:55.396Z,96689.00
2024-01-17T00:23:29.539Z,96696.00
2024-01-17T00:26:05.388Z,96704.00
2024-01-17T00:28:39.498Z,96697.00
2024-01-17T00:31:13.675Z,96687.00
2024-01-17T00:33:49.093Z,96670.00
2024-01-17T00:36:23.273Z,96676.00
2024-01-17T00:38:57.442Z,96669.00
2024-01-17T00:41:32.903Z,96664.00
2024-01-17T00:44:07.069Z,96675.00
2024-01-17T00:46:41.135Z,96664.00
2024-01-17T00:49:15.226Z,96672.00
2024-01-17T00:51:49.354Z,96656.00
2024-01-17T00:54:23.769Z,96653.00
2024-01-17T00:57:00.712Z,96644.00
2024-01-17T00:59:36.167Z,96642.00
2024-01-17T01:02:10.352Z,96635.00
2024-01-17T01:04:44.399Z,96632.00
2024-01-17T01:07:18.534Z,96641.00
2024-01-17T01:09:55.836Z,96642.00
2024-01-17T01:12:32.768Z,96641.00
2024-01-17T01:15:09.417Z,96635.00
2024-01-17T01:17:43.735Z,96637.00
2024-01-17T01:20:18.050Z,96648.00
2024-01-17T01:22:52.178Z,96637.00
2024-01-17T01:25:27.226Z,96628.00
2024-01-17T01:28:02.803Z,96632.00
2024-01-17T01:30:36.987Z,96626.00
2024-01-17T01:33:11.294Z,96637.00
2024-01-17T01:35:45.515Z,96637.00
2024-01-17T01:38:19.609Z,96635.00
2024-01-17T01:40:53.800Z,96633.00
2024-01-17T01:43:29.359Z,96634.00
2024-01-17T01:46:17.743Z,96629.00
2024-01-17T01:48:52.768Z,96625.00
2024-01-17T01:51:28.002Z,96613.00
2024-01-17T01:54:05.634Z,96618.00
2024-01-17T01:56:40.717Z,96613.00
2024-01-17T01:59:20.222Z,96608.00
2024-01-17T02:01:55.507Z,96597.00
2024-01-17T02:04:30.138Z,96593.00
2024-01-17T02:07:05.212Z,96578.00
2024-01-17T02:09:40.882Z,96592.00
2024-01-17T02:12:15.239Z,96585.00
2024-01-17T02:14:50.739Z,96588.00
2024-01-17T02:17:25.075Z,96582.00
2024-01-17T02:19:59.795Z,96567.00
2024-01-17T02:22:33.952Z,96572.00
2024-01-17T02:25:09.982Z,96571.00
2024-01-17T02:27:44.054Z,96569.00
2024-01-17T02:30:18.336Z,96561.00
2024-01-17T02:32:54.326Z,96545.00
2024-01-17T02:35:28.549Z,96544.00
2024-01-17T02:38:02.734Z,96537.00
2024-01-17T02:40:38.265Z,96531.00
2024-01-17T02:43:12.365Z,96534.00
2024-01-17T02:45:46.631Z,96527.00
2024-01-17T02:48:20.904Z,96526.00
2024-01-17T02:50:55.194Z,96532.00
2024-01-17T02:53:29.301Z,96527.00
2024-01-17T02:56:05.185Z,96529.00
2024-01-17T02:58:39.274Z,96524.00
2024-01-17T03:01:15.834Z,96525.00
2024-01-17T03:03:50.678Z,96523.00
2024-01-17T03:06:24.812Z,96510.00
2024-01-17T03:08:59.136Z,96506.00
2024-01-17T03:11:34.636Z,96502.00
2024-01-17T03:14:08.774Z,96497.00
2024-01-17T03:16:42.884Z,96497.00
2024-01-17T03:19:17.186Z,96484.00
2024-01-17T03:21:51.798Z,96480.00
2024-01-17T03:24:25.897Z,96473.00
2024-01-17T03:27:01.327Z,96469.00
2024-01-17T03:29:35.531Z,96462.00
2024-01-17T03:32:09.825Z,96467.00
2024-01-17T03:34:43.893Z,96485.00
2024-01-17T03:37:18.015Z,96461.00
2024-01-17T03:39:52.125Z,96473.00
2024-01-17T03:42:27.512Z,96468.00
2024-01-17T03:45:01.675Z,96460.00
2024-01-17T03:47:37.113Z,96449.00
2024-01-17T03:50:11.786Z,96454.00
2024-01-17T03:52:45.859Z,96437.00
2024-01-17T03:55:19.962Z,96445.00
2024-01-17T03:57:55.357Z,96428.00
2024-01-17T04:00:29.511Z,96423.00
2024-01-17T04:03:03.682Z,96410.00
2024-01-17T04:05:39.117Z,96403.00
2024-01-17T04:08:13.211Z,96404.00
2024-01-17T04:10:47.252Z,96400.00
2024-01-17T04:13:22.646Z,96383.00
2024-01-17T04:15:56.768Z,96369.00
2024-01-17T04:18:32.192Z,96365.00
2024-01-17T04:21:06.929Z,96364.00
2024-01-17T04:23:41.003Z,96359.00
2024-01-17T04:26:24.868Z,96347.00
2024-01-17T04:29:00.670Z,96342.00
2024-01-17T04:31:34.807Z,96338.00
2024-01-17T04:34:08.933Z,96325.00
2024-01-17T04:36:43.265Z,96334.00
2024-01-17T04:39:18.004Z,96329.00
2024-01-17T04:41:52.106Z,96326.00
2024-01-17T04:44:31.624Z,96305.00
2024-01-17T04:47:05.946Z,96307.00
2024-01-17T04:49:40.218Z,96291.00
2024-01-17T04:52:17.326Z,96289.00
2024-01-17T04:54:51.677Z,96281.00
2024-01-17T04:57:25.735Z,96277.00
2024-01-17T05:00:01.315Z,96275.00
2024-01-17T05:02:35.409Z,96255.00
2024-01-17T05:05:11.909Z,96248.00
2024-01-17T05:07:47.086Z,96247.00
2024-01-17T05:10:21.188Z,96246.00
2024-01-17T05:12:55.211Z,96233.00
2024-01-17T05:15:30.659Z,96235.00
2024-01-17T05:18:05.791Z,96214.00
2024-01-17T05:20:40.871Z,96218.00
2024-01-17T05:23:15.088Z,96212.00
2024-01-17T05:25:49.410Z,96218.00
2024-01-17T05:28:23.567Z,96210.00
2024-01-17T05:30:59.385Z,96203.00
2024-01-17T05:33:33.750Z,96202.00
2024-01-17T05:36:09.067Z,96182.00
2024-01-17T05:38:43.230Z,96174.00
2024-01-17T05:41:17.359Z,96174.00
2024-01-17T05:43:51.429Z,96168.00
2024-01-17T05:46:27.286Z,96160.00
2024-01-17T05:49:01.476Z,96159.00
2024-01-17T05:51:35.692Z,96157.00
2024-01-17T05:54:09.954Z,96152.00
2024-01-17T05:56:44.058Z,96152.00
2024-01-17T05:59:18.303Z,96138.00
2024-01-17T06:01:56.824Z,96141.00
2024-01-17T06:04:34.289Z,96132.00
2024-01-17T06:07:08.441Z,96136.00
2024-01-17T06:09:44.682Z,96116.00
2024-01-17T06:12:18.775Z,96129.00
2024-01-17T06:14:53.477Z,96116.00
2024-01-17T06:17:29.700Z,96114.00
2024-01-17T06:20:03.941Z,96107.00
2024-01-17T06:22:38.556Z,96102.00
2024-01-17T06:25:13.413Z,96100.00
2024-01-17T06:27:47.495Z,96106.00
2024-01-17T06:30:21.749Z,96099.00
2024-01-17T06:32:57.384Z,96094.00
2024-01-17T06:35:32.207Z,96095.00
2024-01-17T06:38:06.254Z,96098.00
2024-01-17T06:40:41.663Z,96084.00
2024-01-17T06:43:15.833Z,96078.00
2024-01-17T06:45:49.880Z,96071.00
2024-01-17T06:48:25.333Z,96058.00
2024-01-17T06:50:59.600Z,96071.00
2024-01-17T06:53:33.720Z,96064.00
2024-01-17T06:56:08.406Z,96058.00
2024-01-17T06:58:43.657Z,96060.00
2024-01-17T07:01:17.795Z,96055.00
2024-01-17T07:03:53.300Z,96058.00
2024-01-17T07:06:27.514Z,96056.00
2024-01-17T07:09:01.666Z,96044.00
2024-01-17T07:11:35.980Z,96041.00
2024-01-17T07:14:10.730Z,96039.00
2024-01-17T07:16:44.824Z,96037.00
2024-01-17T07:19:20.258Z,96038.00
2024-01-17T07:21:54.317Z,96028.00
2024-01-17T07:24:28.366Z,96019.00
2024-01-17T07:27:02.539Z,96028.00
2024-01-17T07:29:37.289Z,96013.00
2024-01-17T07:32:11.413Z,96023.00
2024-01-17T07:34:47.308Z,96021.00
2024-01-17T07:37:21.704Z,96008.00
2024-01-17T07:39:55.756Z,96011.00
2024-01-17T07:42:30.262Z,96008.00
2024-01-17T07:45:05.654Z,96002.00
2024-01-17T07:47:39.815Z,96005.00
2024-01-17T07:50:15.287Z,95999.00
2024-01-17T07:52:49.342Z,95994.00
2024-01-17T07:55:23.817Z,95999.00
2024-01-17T07:57:59.304Z,95986.00
2024-01-17T08:00:33.745Z,95986.00
2024-01-17T08:03:09.054Z,95981.00
2024-01-17T08:05:44.594Z,95977.00
2024-01-17T08:08:18.754Z,95975.00
2024-01-17T08:10:53.381Z,95978.00
2024-01-17T08:13:27.526Z,95980.00
2024-01-17T08:16:01.599Z,95973.00
2024-01-17T08:18:35.842Z,95971.00
2024-01-17T08:21:11.314Z,95966.00
2024-01-17T08:23:45.546Z,95951.00
2024-01-17T08:26:19.667Z,95945.00
2024-01-17T08:28:53.774Z,95934.00
2024-01-17T08:31:27.821Z,95931.00
2024-01-17T08:34:03.328Z,95928.00
2024-01-17T08:36:39.011Z,95923.00
2024-01-17T08:39:13.182Z,95922.00
2024-01-17T08:41:48.453Z,95913.00
2024-01-17T08:44:24.127Z,95908.00
2024-01-17T08:46:58.254Z,95910.00
2024-01-17T08:49:32.338Z,95895.00
2024-01-17T08:52:09.385Z,95899.00
2024-01-17T08:54:43.805Z,95901.00
2024-01-17T08:57:17.989Z,95899.00
2024-01-17T08:59:52.147Z,95892.00
2024-01-17T09:02:26.220Z,95891.00
2024-01-17T09:05:00.366Z,95894.00
2024-01-17T09:07:37.327Z,95885.00
2024-01-17T09:10:14.196Z,95883.00
2024-01-17T09:12:48.359Z,95871.00
2024-01-17T09:15:22.555Z,95867.00
2024-01-17T09:17:56.876Z,95861.00
2024-01-17T09:20:31.062Z,95850.00
2024-01-17T09:23:06.555Z,95850.00
2024-01-17T09:25:40.693Z,95851.00
2024-01-17T09:28:14.812Z,95840.00
2024-01-17T09:30:48.972Z,95847.00
2024-01-17T09:33:23.445Z,95846.00
2024-01-17T09:36:02.358Z,95845.00
2024-01-17T09:38:38.758Z,95844.00
2024-01-17T09:41:12.954Z,95835.00
2024-01-17T09:43:47.197Z,95825.00
2024-01-17T09:46:21.588Z,95822.00
2024-01-17T09:48:55.823Z,95813.00
2024-01-17T09:51:34.066Z,95806.00
2024-01-17T09:54:11.119Z,95797.00
2024-01-17T09:56:49.222Z,95801.00
2024-01-17T09:59:29.087Z,95790.00
2024-01-17T10:02:03.582Z,95784.00
2024-01-17T10:04:38.188Z,95786.00
2024-01-17T10:07:13.640Z,95770.00
2024-01-17T10:09:49.181Z,95765.00
2024-01-17T10:12:23.313Z,95764.00
2024-01-17T10:14:57.536Z,95755.00
2024-01-17T10:17:31.633Z,95758.00
2024-01-17T10:20:07.776Z,95748.00
2024-01-17T10:22:44.186Z,95741.00
2024-01-17T10:25:19.683Z,95726.00
2024-01-17T10:27:53.828Z,95726.00
2024-01-17T10:30:27.934Z,95723.00
2024-01-17T10:33:03.718Z,95696.00
2024-01-17T10:35:39.014Z,95692.00
2024-01-17T10:38:13.629Z,95689.00
2024-01-17T10:40:49.149Z,95668.00
2024-01-17T10:43:23.388Z,95665.00
2024-01-17T10:45:57.800Z,95650.00
2024-01-17T10:48:32.044Z,95655.00
2024-01-17T10:51:07.853Z,95648.00
2024-01-17T10:53:51.303Z,95645.00
2024-01-17T10:56:32.854Z,95642.00
2024-01-17T10:59:07.703Z,95635.00
2024-01-17T11:01:45.855Z,95619.00
2024-01-17T11:04:25.117Z,95617.00
2024-01-17T11:07:01.186Z,95620.00
2024-01-17T11:09:36.022Z,95605.00
2024-01-17T11:12:12.851Z,95608.00
2024-01-17T11:14:49.424Z,95602.00
2024-01-17T11:17:32.363Z,95602.00
2024-01-17T11:20:13.494Z,95594.00
2024-01-17T11:22:49.405Z,95592.00
2024-01-17T11:25:31.388Z,95582.00
2024-01-17T11:28:20.615Z,95592.00
2024-01-17T11:31:12.297Z,95582.00
2024-01-17T11:33:47.346Z,95574.00
2024-01-17T11:36:45.640Z,95574.00
2024-01-17T11:39:21.249Z,95570.00
2024-01-17T11:41:56.535Z,95567.00
2024-01-17T11:44:32.994Z,95563.00
2024-01-17T11:47:09.298Z,95564.00
2024-01-17T11:49:46.903Z,95545.00
2024-01-17T11:52:29.265Z,95544.00
2024-01-17T11:55:04.277Z,95539.00
2024-01-17T11:57:39.189Z,95527.00
2024-01-17T12:00:17.706Z,95519.00
2024-01-17T12:02:51.890Z,95519.00
2024-01-17T12:05:26.016Z,95511.00
2024-01-17T12:08:00.220Z,95513.00
2024-01-17T12:10:34.382Z,95505.00
2024-01-17T12:13:08.692Z,95497.00
2024-01-17T12:15:44.109Z,95494.00
2024-01-17T12:18:22.101Z,95480.00
2024-01-17T12:20:57.222Z,95485.00
2024-01-17T12:23:33.648Z,95475.00
2024-01-17T12:26:07.905Z,95471.00
2024-01-17T12:28:42.018Z,95467.00
2024-01-17T12:31:17.825Z,95464.00
2024-01-17T12:33:52.779Z,95462.00
2024-01-17T12:36:26.943Z,95453.00
2024-01-17T12:39:06.077Z,95445.00
2024-01-17T12:41:40.405Z,95446.00
2024-01-17T12:44:14.845Z,95441.00
2024-01-17T12:46:50.427Z,95447.00
2024-01-17T12:49:24.630Z,95424.00
2024-01-17T12:51:58.804Z,95432.00
2024-01-17T12:54:33.504Z,95405.00
2024-01-17T12:57:07.664Z,95402.00
2024-01-17T12:59:42.299Z,95396.00
2024-01-17T13:02:18.291Z,95398.00
2024-01-17T13:05:09.207Z,95394.00
2024-01-17T13:07:43.345Z,95394.00
2024-01-17T13:10:18.883Z,95397.00
2024-01-17T13:12:57.063Z,95391.00
2024-01-17T13:15:31.160Z,95393.00
2024-01-17T13:18:09.929Z,95378.00
2024-01-17T13:20:44.144Z,95384.00
2024-01-17T13:23:18.492Z,95383.00
2024-01-17T13:25:52.577Z,95376.00
2024-01-17T13:28:26.642Z,95373.00
2024-01-17T13:31:00.718Z,95371.00
2024-01-17T13:33:36.818Z,95365.00
2024-01-17T13:36:11.024Z,95364.00
2024-01-17T13:38:45.623Z,95358.00
2024-01-17T13:41:19.784Z,95366.00
2024-01-17T13:43:54.374Z,95364.00
2024-01-17T13:46:29.019Z,95342.00
2024-01-17T13:49:06.520Z,95351.00
2024-01-17T13:51:47.396Z,95351.00
2024-01-17T13:54:23.820Z,95351.00
2024-01-17T13:56:58.224Z,95337.00
2024-01-17T13:59:33.105Z,95349.00
2024-01-17T14:02:07.566Z,95344.00
2024-01-17T14:04:44.091Z,95339.00
2024-01-17T14:07:21.193Z,95335.00
2024-01-17T14:09:55.324Z,95344.00
2024-01-17T14:12:29.957Z,95337.00
2024-01-17T14:15:05.862Z,95327.00
2024-01-17T14:17:40.360Z,95322.00
2024-01-17T14:20:20.318Z,95324.00
2024-01-17T14:22:54.768Z,95335.00
2024-01-17T14:25:28.980Z,95319.00
2024-01-17T14:28:06.966Z,95317.00
2024-01-17T14:30:41.284Z,95319.00
2024-01-17T14:33:20.234Z,95308.00
2024-01-17T14:35:55.946Z,95312.00
2024-01-17T14:38:30.017Z,95308.00
2024-01-17T14:41:04.112Z,95304.00
2024-01-17T14:43:39.118Z,95300.00
2024-01-17T14:46:13.130Z,95291.00
2024-01-17T14:48:47.415Z,95283.00
2024-01-17T14:51:22.956Z,95281.00
2024-01-17T14:53:57.284Z,95289.00
2024-01-17T14:56:31.445Z,95284.00
2024-01-17T14:59:06.669Z,95272.00
2024-01-17T15:01:41.950Z,95259.00
2024-01-17T15:04:16.660Z,95256.00
2024-01-17T15:06:52.982Z,95247.00
2024-01-17T15:09:27.277Z,95244.00
2024-01-17T15:12:01.883Z,95235.00
2024-01-17T15:14:36.003Z,95232.00
2024-01-17T15:17:10.092Z,95234.00
2024-01-17T15:19:44.351Z,95236.00
2024-01-17T15:22:19.876Z,95244.00
2024-01-17T15:24:53.977Z,95229.00
2024-01-17T15:27:28.159Z,95247.00
2024-01-17T15:30:02.464Z,95235.00
2024-01-17T15:32:36.741Z,95234.00
2024-01-17T15:35:11.189Z,95228.00
2024-01-17T15:37:46.713Z,95237.00
2024-01-17T15:40:20.918Z,95235.00
2024-01-17T15:42:55.094Z,95216.00
2024-01-17T15:45:29.314Z,95219.00
2024-01-17T15:48:03.708Z,95225.00
2024-01-17T15:50:39.189Z,95224.00
2024-01-17T15:53:15.308Z,95237.00
2024-01-17T15:55:49.480Z,95249.00
2024-01-17T15:58:23.605Z,95258.00
2024-01-17T16:00:57.732Z,95248.00
2024-01-17T16:03:32.102Z,95238.00
2024-01-17T16:06:07.472Z,95235.00
2024-01-17T16:08:43.049Z,95240.00
2024-01-17T16:11:17.165Z,95243.00
2024-01-17T16:13:52.281Z,95249.00
2024-01-17T16:16:26.395Z,95248.00
2024-01-17T16:19:00.644Z,95246.00
2024-01-17T16:21:35.006Z,95238.00
2024-01-17T16:24:11.452Z,95253.00
2024-01-17T16:26:45.978Z,95250.00
2024-01-17T16:29:20.149Z,95243.00
2024-01-17T16:31:54.297Z,95244.00
2024-01-17T16:34:28.553Z,95235.00
2024-01-17T16:37:02.700Z,95251.00
2024-01-17T16:39:38.916Z,95240.00
2024-01-17T16:42:13.110Z,95251.00
2024-01-17T16:44:47.370Z,95243.00
2024-01-17T16:47:21.479Z,95252.00
2024-01-17T16:49:55.687Z,95247.00
2024-01-17T16:52:30.692Z,95251.00
2024-01-17T16:55:08.277Z,95251.00
2024-01-17T16:57:42.438Z,95252.00
2024-01-17T17:00:17.696Z,95265.00
2024-01-17T17:02:51.844Z,95250.00
2024-01-17T17:05:26.417Z,95254.00
2024-01-17T17:08:01.224Z,95245.00
2024-01-17T17:10:37.738Z,95241.00
2024-01-17T17:13:12.079Z,95248.00
2024-01-17T17:15:46.211Z,95241.00
2024-01-17T17:18:21.369Z,95233.00
2024-01-17T17:20:55.519Z,95217.00
2024-01-17T17:23:29.650Z,95210.00
2024-01-17T17:26:07.495Z,95224.00
2024-01-17T17:28:42.694Z,95222.00
2024-01-17T17:31:20.157Z,95217.00
2024-01-17T17:33:54.403Z,95216.00
2024-01-17T17:36:29.495Z,95214.00
2024-01-17T17:39:04.042Z,95222.00
2024-01-17T17:41:40.857Z,95227.00
2024-01-17T17:44:15.007Z,95211.00
2024-01-17T17:46:49.155Z,95212.00
2024-01-17T17:49:23.278Z,95221.00
2024-01-17T17:51:57.560Z,95225.00
2024-01-17T17:54:31.722Z,95222.00
2024-01-17T17:57:07.467Z,95226.00
2024-01-17T17:59:41.890Z,95247.00
2024-01-17T18:02:15.979Z,95246.00
2024-01-17T18:04:50.217Z,95240.00
2024-01-17T18:07:24.403Z,95238.00
2024-01-17T18:09:58.503Z,95229.00
2024-01-17T18:12:34.125Z,95228.00
2024-01-17T18:15:10.802Z,95230.00
2024-01-17T18:17:45.219Z,95224.00
2024-01-17T18:20:22.725Z,95229.00
2024-01-17T18:22:57.068Z,95228.00
2024-01-17T18:25:34.231Z,95234.00
2024-01-17T18:28:13.298Z,95225.00
2024-01-17T18:30:47.359Z,95229.00
2024-01-17T18:33:21.540Z,95231.00
2024-01-17T18:35:56.570Z,95228.00
2024-01-17T18:38:30.851Z,95239.00
2024-01-17T18:41:07.455Z,95236.00
2024-01-17T18:43:42.942Z,95240.00
2024-01-17T18:46:17.273Z,95237.00
2024-01-17T18:48:52.371Z,95233.00
2024-01-17T18:51:27.386Z,95226.00
2024-01-17T18:54:01.656Z,95238.00
2024-01-17T18:56:35.862Z,95237.00
2024-01-17T18:59:11.298Z,95242.00
2024-01-17T19:01:45.471Z,95253.00
2024-01-17T19:04:20.204Z,95239.00
2024-01-17T19:06:54.414Z,95242.00
2024-01-17T19:09:28.583Z,95246.00
2024-01-17T19:12:03.929Z,95242.00
2024-01-17T19:14:40.334Z,95245.00
2024-01-17T19:17:14.491Z,95247.00
2024-01-17T19:19:48.590Z,95247.00
2024-01-17T19:22:22.690Z,95249.00
2024-01-17T19:24:56.751Z,95247.00
2024-01-17T19:27:33.802Z,95237.00
2024-01-17T19:30:11.475Z,95249.00
2024-01-17T19:32:46.033Z,95232.00
2024-01-17T19:35:21.653Z,95227.00
2024-01-17T19:38:01.644Z,95229.00
2024-01-17T19:40:36.460Z,95234.00
2024-01-17T19:43:11.946Z,95240.00
2024-01-17T19:45:47.490Z,95247.00
2024-01-17T19:48:23.382Z,95250.00
2024-01-17T19:50:57.768Z,95256.00
2024-01-17T19:53:32.101Z,95266.00
2024-01-17T19:56:07.459Z,95269.00
2024-01-17T19:58:41.548Z,95267.00
2024-01-17T20:01:17.003Z,95270.00
2024-01-17T20:03:51.647Z,95276.00
2024-01-17T20:06:25.918Z,95279.00
2024-01-17T20:09:00.550Z,95276.00
2024-01-17T20:11:34.650Z,95278.00
2024-01-17T20:14:08.747Z,95281.00
2024-01-17T20:16:44.379Z,95278.00
2024-01-17T20:19:19.160Z,95284.00
2024-01-17T20:21:53.464Z,95274.00
2024-01-17T20:24:27.680Z,95273.00
2024-01-17T20:27:01.918Z,95285.00
2024-01-17T20:29:36.125Z,95280.00
2024-01-17T20:32:11.552Z,95281.00
2024-01-17T20:34:47.176Z,95281.00
2024-01-17T20:37:22.073Z,95275.00
2024-01-17T20:39:56.228Z,95283.00
2024-01-17T20:42:30.427Z,95293.00
2024-01-17T20:45:05.145Z,95294.00
2024-01-17T20:47:41.275Z,95297.00
2024-01-17T20:50:17.410Z,95292.00
2024-01-17T20:52:51.623Z,95299.00
2024-01-17T20:55:25.885Z,95297.00
2024-01-17T20:57:59.987Z,95302.00
2024-01-17T21:00:35.035Z,95301.00
2024-01-17T21:03:10.580Z,95314.00
2024-01-17T21:05:45.024Z,95308.00
2024-01-17T21:08:19.510Z,95311.00
2024-01-17T21:10:54.777Z,95307.00
2024-01-17T21:13:29.054Z,95315.00
2024-01-17T21:16:03.216Z,95313.00
2024-01-17T21:18:38.773Z,95299.00
2024-01-17T21:21:13.127Z,95317.00
2024-01-17T21:23:47.294Z,95300.00
2024-01-17T21:26:22.266Z,95319.00
2024-01-17T21:28:56.366Z,95317.00
2024-01-17T21:31:30.532Z,95318.00
2024-01-17T21:34:07.998Z,95333.00
2024-01-17T21:36:42.399Z,95334.00
2024-01-17T21:39:16.569Z,95329.00
2024-01-17T21:41:52.522Z,95337.00
2024-01-17T21:44:26.997Z,95336.00
2024-01-17T21:47:01.398Z,95347.00
2024-01-17T21:49:36.911Z,95343.00
2024-01-17T21:52:11.071Z,95354.00
2024-01-17T21:54:45.147Z,95343.00
2024-01-17T21:57:19.406Z,95346.00
2024-01-17T21:59:55.050Z,95351.00
2024-01-17T22:02:29.346Z,95350.00
2024-01-17T22:05:05.561Z,95355.00
2024-01-17T22:07:39.903Z,95355.00
2024-01-17T22:10:16.639Z,95356.00
2024-01-17T22:12:50.840Z,95360.00
2024-01-17T22:15:27.393Z,95366.00
2024-01-17T22:18:03.171Z,95359.00
2024-01-17T22:20:39.319Z,95357.00
2024-01-17T22:23:13.575Z,95374.00
2024-01-17T22:25:47.728Z,95374.00
2024-01-17T22:28:21.791Z,95365.00
2024-01-17T22:30:55.858Z,95360.00
2024-01-17T22:33:30.553Z,95364.00
2024-01-17T22:36:07.329Z,95353.00
2024-01-17T22:38:41.395Z,95361.00
2024-01-17T22:41:15.662Z,95366.00
2024-01-17T22:43:49.698Z,95358.00
2024-01-17T22:46:23.760Z,95356.00
2024-01-17T22:48:58.054Z,95362.00
2024-01-17T22:51:33.696Z,95363.00
2024-01-17T22:54:07.863Z,95367.00
2024-01-17T22:56:42.065Z,95366.00
2024-01-17T22:59:16.081Z,95371.00
2024-01-17T23:01:50.124Z,95374.00
2024-01-17T23:04:24.230Z,95356.00
2024-01-17T23:06:59.739Z,95375.00
2024-01-17T23:09:33.839Z,95370.00
2024-01-17T23:12:09.749Z,95366.00
2024-01-17T23:14:43.848Z,95371.00
2024-01-17T23:17:18.346Z,95369.00
2024-01-17T23:19:52.546Z,95371.00
2024-01-17T23:22:27.992Z,95368.00
2024-01-17T23:25:02.875Z,95367.00
2024-01-17T23:27:37.006Z,95363.00
2024-01-17T23:30:12.259Z,95366.00
2024-01-17T23:32:46.603Z,95374.00
2024-01-17T23:35:21.334Z,95373.00
2024-01-17T23:37:56.692Z,95371.00
2024-01-17T23:40:30.736Z,95371.00
2024-01-17T23:43:05.376Z,95371.00
2024-01-17T23:45:39.534Z,95369.00
2024-01-17T23:48:13.837Z,95375.00
2024-01-17T23:50:47.987Z,95372.00
2024-01-17T23:53:23.427Z,95383.00
2024-01-17T23:55:57.593Z,95374.00
2024-01-17T23:58:31.670Z,95374.00
